CheckWX is a tool to help pilots better visualize weather data.  It is not intended as a substitute for an official pre-flight weather briefing.

00:45:34 UTC

CYFT METAR
Makkovik Airport
Makkovik, Canada
Current

5 hours ago

CYFT 162000Z 34015G23KT 15SM SCT020 BKN035 05/03 A3007 RMK ST3SC3 LAST STFD OBS/NEXT 170900Z SLP189
Observed
Sep-16 @ 20:00 UTC
Wind
  • 340° at 15 KTS
  • Gusting to 23 KTS
Visibility
15 SM
Flight Rules
VFR
Cloud Levels
  • Scattered at 2,000' AGL
  • Broken at 3,500' AGL
Temperature
C / 41°F
Dewpoint
C / 37°F
Humidity
87%
Altimeter
30.07" Hg
Pressure
1018.32 hPa
Previous

6 hours ago

CYFT 161900Z 34013G24KT 12SM SCT018 BKN030 06/03 A3007 RMK ST4SC3 SLP186
Observed
Sep-16 @ 19:00 UTC
Wind
  • 340° at 13 KTS
  • Gusting to 24 KTS
Visibility
12 SM
Flight Rules
MVFR
Cloud Levels
  • Scattered at 1,800' AGL
  • Broken at 3,000' AGL
Temperature
C / 43°F
Dewpoint
C / 37°F
Humidity
81%
Altimeter
30.07" Hg
Pressure
1018.32 hPa
Previous

7 hours ago

CYFT 161800Z 34015G23KT 12SM BKN018 OVC028 06/03 A3005 RMK ST5SC3 SLP180
Observed
Sep-16 @ 18:00 UTC
Wind
  • 340° at 15 KTS
  • Gusting to 23 KTS
Visibility
12 SM
Flight Rules
MVFR
Cloud Levels
  • Broken at 1,800' AGL
  • Overcast at 2,800' AGL
Temperature
C / 43°F
Dewpoint
C / 37°F
Humidity
81%
Altimeter
30.05" Hg
Pressure
1017.62 hPa